sensor_id;sensor_type;location;lat;lon;timestamp;P1;durP1;ratioP1;P2;durP2;ratioP2
45540;SDS011;31265;49.680;8.608;2022-10-31T00:01:33;4.97;;;2.80;;
45540;SDS011;31265;49.680;8.608;2022-10-31T00:04:05;4.72;;;1.67;;
45540;SDS011;31265;49.680;8.608;2022-10-31T00:06:34;8.32;;;2.05;;
45540;SDS011;31265;49.680;8.608;2022-10-31T00:09:02;5.53;;;2.30;;
45540;SDS011;31265;49.680;8.608;2022-10-31T00:14:00;7.53;;;1.80;;
45540;SDS011;31265;49.680;8.608;2022-10-31T00:16:29;4.20;;;1.85;;
45540;SDS011;31265;49.680;8.608;2022-10-31T00:18:58;5.65;;;2.05;;
45540;SDS011;31265;49.680;8.608;2022-10-31T00:21:30;6.55;;;2.20;;
45540;SDS011;31265;49.680;8.608;2022-10-31T00:24:01;9.13;;;1.85;;
45540;SDS011;31265;49.680;8.608;2022-10-31T00:26:31;8.13;;;2.00;;
45540;SDS011;31265;49.680;8.608;2022-10-31T00:28:59;3.53;;;1.77;;
45540;SDS011;31265;49.680;8.608;2022-10-31T00:31:28;5.50;;;1.77;;
45540;SDS011;31265;49.680;8.608;2022-10-31T00:33:58;4.40;;;1.77;;
45540;SDS011;31265;49.680;8.608;2022-10-31T00:36:32;3.38;;;1.50;;
45540;SDS011;31265;49.680;8.608;2022-10-31T00:39:02;4.75;;;2.03;;
45540;SDS011;31265;49.680;8.608;2022-10-31T00:41:30;5.95;;;1.85;;
45540;SDS011;31265;49.680;8.608;2022-10-31T00:43:58;8.48;;;1.95;;
45540;SDS011;31265;49.680;8.608;2022-10-31T00:46:27;4.75;;;2.50;;
45540;SDS011;31265;49.680;8.608;2022-10-31T00:48:56;3.92;;;1.60;;
45540;SDS011;31265;49.680;8.608;2022-10-31T00:51:25;2.92;;;1.40;;
45540;SDS011;31265;49.680;8.608;2022-10-31T00:53:55;4.13;;;2.03;;
45540;SDS011;31265;49.680;8.608;2022-10-31T00:56:23;8.18;;;2.40;;
45540;SDS011;31265;49.680;8.608;2022-10-31T00:58:52;8.43;;;2.10;;
45540;SDS011;31265;49.680;8.608;2022-10-31T01:01:21;4.32;;;2.17;;
45540;SDS011;31265;49.680;8.608;2022-10-31T01:03:50;6.10;;;1.90;;
45540;SDS011;31265;49.680;8.608;2022-10-31T01:06:18;6.50;;;2.38;;
45540;SDS011;31265;49.680;8.608;2022-10-31T01:08:47;4.60;;;2.25;;
45540;SDS011;31265;49.680;8.608;2022-10-31T01:11:22;7.50;;;2.90;;
45540;SDS011;31265;49.680;8.608;2022-10-31T01:13:51;7.85;;;2.08;;
45540;SDS011;31265;49.680;8.608;2022-10-31T01:16:23;9.77;;;2.53;;
45540;SDS011;31265;49.680;8.608;2022-10-31T01:18:53;4.00;;;1.95;;
45540;SDS011;31265;49.680;8.608;2022-10-31T01:21:22;10.07;;;2.25;;
45540;SDS011;31265;49.680;8.608;2022-10-31T01:23:52;9.00;;;2.80;;
45540;SDS011;31265;49.680;8.608;2022-10-31T01:26:24;6.20;;;2.70;;
45540;SDS011;31265;49.680;8.608;2022-10-31T01:28:55;3.78;;;2.00;;
45540;SDS011;31265;49.680;8.608;2022-10-31T01:31:28;3.97;;;1.98;;
45540;SDS011;31265;49.680;8.608;2022-10-31T01:33:59;7.78;;;2.30;;
45540;SDS011;31265;49.680;8.608;2022-10-31T01:36:29;4.55;;;2.22;;
45540;SDS011;31265;49.680;8.608;2022-10-31T01:38:59;4.47;;;1.90;;
45540;SDS011;31265;49.680;8.608;2022-10-31T01:41:31;3.05;;;1.83;;
45540;SDS011;31265;49.680;8.608;2022-10-31T01:44:43;8.48;;;2.55;;
45540;SDS011;31265;49.680;8.608;2022-10-31T01:47:11;6.03;;;2.17;;
45540;SDS011;31265;49.680;8.608;2022-10-31T01:49:45;4.65;;;1.67;;
45540;SDS011;31265;49.680;8.608;2022-10-31T01:52:18;4.38;;;2.17;;
45540;SDS011;31265;49.680;8.608;2022-10-31T01:54:52;4.63;;;2.03;;
45540;SDS011;31265;49.680;8.608;2022-10-31T01:57:28;3.83;;;1.85;;
45540;SDS011;31265;49.680;8.608;2022-10-31T02:00:02;5.60;;;2.17;;
45540;SDS011;31265;49.680;8.608;2022-10-31T02:02:40;5.35;;;2.13;;
45540;SDS011;31265;49.680;8.608;2022-10-31T02:05:11;13.02;;;2.30;;
45540;SDS011;31265;49.680;8.608;2022-10-31T02:07:45;4.75;;;1.98;;
45540;SDS011;31265;49.680;8.608;2022-10-31T02:10:26;5.13;;;2.25;;
45540;SDS011;31265;49.680;8.608;2022-10-31T02:12:56;5.13;;;1.90;;
45540;SDS011;31265;49.680;8.608;2022-10-31T02:15:30;6.18;;;2.33;;
45540;SDS011;31265;49.680;8.608;2022-10-31T02:17:59;8.27;;;2.80;;
45540;SDS011;31265;49.680;8.608;2022-10-31T02:20:29;6.47;;;3.00;;
45540;SDS011;31265;49.680;8.608;2022-10-31T02:23:19;4.90;;;2.15;;
45540;SDS011;31265;49.680;8.608;2022-10-31T02:26:35;7.93;;;2.10;;
45540;SDS011;31265;49.680;8.608;2022-10-31T02:32:18;5.25;;;2.65;;
45540;SDS011;31265;49.680;8.608;2022-10-31T02:34:55;4.07;;;1.88;;
45540;SDS011;31265;49.680;8.608;2022-10-31T02:37:33;3.92;;;1.70;;
45540;SDS011;31265;49.680;8.608;2022-10-31T02:40:10;6.20;;;2.00;;
45540;SDS011;31265;49.680;8.608;2022-10-31T02:43:05;8.15;;;2.90;;
45540;SDS011;31265;49.680;8.608;2022-10-31T02:45:41;7.88;;;2.10;;
45540;SDS011;31265;49.680;8.608;2022-10-31T02:48:18;6.03;;;1.98;;
45540;SDS011;31265;49.680;8.608;2022-10-31T02:50:50;8.50;;;2.58;;
45540;SDS011;31265;49.680;8.608;2022-10-31T02:53:24;3.80;;;1.95;;
45540;SDS011;31265;49.680;8.608;2022-10-31T02:55:55;4.28;;;1.73;;
45540;SDS011;31265;49.680;8.608;2022-10-31T02:58:28;3.85;;;2.17;;
45540;SDS011;31265;49.680;8.608;2022-10-31T03:01:07;4.10;;;1.83;;
45540;SDS011;31265;49.680;8.608;2022-10-31T03:03:56;8.63;;;3.03;;
45540;SDS011;31265;49.680;8.608;2022-10-31T03:06:39;5.47;;;2.08;;
45540;SDS011;31265;49.680;8.608;2022-10-31T03:09:17;6.15;;;2.90;;
45540;SDS011;31265;49.680;8.608;2022-10-31T03:11:56;8.25;;;2.15;;
45540;SDS011;31265;49.680;8.608;2022-10-31T03:14:31;3.92;;;2.20;;
45540;SDS011;31265;49.680;8.608;2022-10-31T03:17:05;5.72;;;2.05;;
45540;SDS011;31265;49.680;8.608;2022-10-31T03:19:39;3.97;;;1.85;;
45540;SDS011;31265;49.680;8.608;2022-10-31T03:22:13;4.57;;;2.00;;
45540;SDS011;31265;49.680;8.608;2022-10-31T03:24:44;6.15;;;1.90;;
45540;SDS011;31265;49.680;8.608;2022-10-31T03:27:21;5.18;;;2.05;;
45540;SDS011;31265;49.680;8.608;2022-10-31T03:29:52;5.25;;;2.28;;
45540;SDS011;31265;49.680;8.608;2022-10-31T03:32:25;4.65;;;2.45;;
45540;SDS011;31265;49.680;8.608;2022-10-31T03:34:59;3.42;;;1.80;;
45540;SDS011;31265;49.680;8.608;2022-10-31T03:37:32;3.90;;;1.85;;
45540;SDS011;31265;49.680;8.608;2022-10-31T03:40:03;7.68;;;1.55;;
45540;SDS011;31265;49.680;8.608;2022-10-31T03:42:38;6.18;;;3.05;;
45540;SDS011;31265;49.680;8.608;2022-10-31T03:45:10;3.35;;;1.90;;
45540;SDS011;31265;49.680;8.608;2022-10-31T03:47:42;5.20;;;1.98;;
45540;SDS011;31265;49.680;8.608;2022-10-31T03:50:16;7.63;;;2.97;;
45540;SDS011;31265;49.680;8.608;2022-10-31T03:52:47;6.85;;;1.67;;
45540;SDS011;31265;49.680;8.608;2022-10-31T03:55:22;6.55;;;2.63;;
45540;SDS011;31265;49.680;8.608;2022-10-31T03:57:57;4.15;;;2.08;;
45540;SDS011;31265;49.680;8.608;2022-10-31T04:00:31;5.53;;;2.00;;
45540;SDS011;31265;49.680;8.608;2022-10-31T04:03:03;4.53;;;1.67;;
45540;SDS011;31265;49.680;8.608;2022-10-31T04:05:38;7.03;;;2.17;;
45540;SDS011;31265;49.680;8.608;2022-10-31T04:08:10;3.45;;;2.28;;
45540;SDS011;31265;49.680;8.608;2022-10-31T04:10:44;4.65;;;1.80;;
45540;SDS011;31265;49.680;8.608;2022-10-31T04:13:20;4.65;;;2.15;;
45540;SDS011;31265;49.680;8.608;2022-10-31T04:16:09;6.75;;;2.17;;
45540;SDS011;31265;49.680;8.608;2022-10-31T04:18:43;4.32;;;2.15;;
45540;SDS011;31265;49.680;8.608;2022-10-31T04:21:14;4.15;;;1.67;;
45540;SDS011;31265;49.680;8.608;2022-10-31T04:23:47;5.63;;;2.05;;
45540;SDS011;31265;49.680;8.608;2022-10-31T04:26:23;3.47;;;1.77;;
45540;SDS011;31265;49.680;8.608;2022-10-31T04:28:52;5.38;;;2.03;;
45540;SDS011;31265;49.680;8.608;2022-10-31T04:31:21;5.45;;;2.17;;
45540;SDS011;31265;49.680;8.608;2022-10-31T04:33:50;4.68;;;2.25;;
45540;SDS011;31265;49.680;8.608;2022-10-31T04:36:19;9.77;;;2.53;;
45540;SDS011;31265;49.680;8.608;2022-10-31T04:38:48;8.13;;;2.13;;
45540;SDS011;31265;49.680;8.608;2022-10-31T04:41:49;7.32;;;2.60;;
45540;SDS011;31265;49.680;8.608;2022-10-31T04:44:18;3.33;;;1.55;;
45540;SDS011;31265;49.680;8.608;2022-10-31T04:46:51;4.90;;;2.58;;
45540;SDS011;31265;49.680;8.608;2022-10-31T04:49:20;9.25;;;2.55;;
45540;SDS011;31265;49.680;8.608;2022-10-31T04:51:50;8.00;;;2.07;;
45540;SDS011;31265;49.680;8.608;2022-10-31T04:54:19;4.32;;;2.25;;
45540;SDS011;31265;49.680;8.608;2022-10-31T04:56:55;6.63;;;3.13;;
45540;SDS011;31265;49.680;8.608;2022-10-31T05:01:53;7.03;;;2.92;;
45540;SDS011;31265;49.680;8.608;2022-10-31T05:04:36;4.80;;;2.35;;
45540;SDS011;31265;49.680;8.608;2022-10-31T05:07:06;4.97;;;2.20;;
45540;SDS011;31265;49.680;8.608;2022-10-31T05:09:34;4.20;;;2.38;;
45540;SDS011;31265;49.680;8.608;2022-10-31T05:12:04;6.03;;;2.80;;
45540;SDS011;31265;49.680;8.608;2022-10-31T05:14:51;7.72;;;2.42;;
45540;SDS011;31265;49.680;8.608;2022-10-31T05:17:38;5.43;;;2.67;;
45540;SDS011;31265;49.680;8.608;2022-10-31T05:20:42;5.35;;;2.55;;
45540;SDS011;31265;49.680;8.608;2022-10-31T05:23:18;4.43;;;1.75;;
45540;SDS011;31265;49.680;8.608;2022-10-31T05:25:46;5.78;;;2.67;;
45540;SDS011;31265;49.680;8.608;2022-10-31T05:28:14;5.63;;;2.65;;
45540;SDS011;31265;49.680;8.608;2022-10-31T05:30:43;5.47;;;3.00;;
45540;SDS011;31265;49.680;8.608;2022-10-31T05:33:14;9.90;;;2.75;;
45540;SDS011;31265;49.680;8.608;2022-10-31T05:36:09;4.78;;;2.00;;
45540;SDS011;31265;49.680;8.608;2022-10-31T05:38:57;7.55;;;3.13;;
45540;SDS011;31265;49.680;8.608;2022-10-31T05:41:31;5.00;;;2.40;;
45540;SDS011;31265;49.680;8.608;2022-10-31T05:44:07;5.95;;;2.22;;
45540;SDS011;31265;49.680;8.608;2022-10-31T05:46:49;4.60;;;2.65;;
45540;SDS011;31265;49.680;8.608;2022-10-31T05:49:37;7.28;;;2.17;;
45540;SDS011;31265;49.680;8.608;2022-10-31T05:52:24;6.38;;;2.78;;
45540;SDS011;31265;49.680;8.608;2022-10-31T05:55:03;6.97;;;2.85;;
45540;SDS011;31265;49.680;8.608;2022-10-31T05:57:32;6.60;;;2.67;;
45540;SDS011;31265;49.680;8.608;2022-10-31T06:00:02;7.95;;;2.65;;
45540;SDS011;31265;49.680;8.608;2022-10-31T06:02:47;6.53;;;2.75;;
45540;SDS011;31265;49.680;8.608;2022-10-31T06:05:23;6.82;;;2.15;;
45540;SDS011;31265;49.680;8.608;2022-10-31T06:07:52;8.13;;;1.98;;
45540;SDS011;31265;49.680;8.608;2022-10-31T06:10:24;8.02;;;2.65;;
45540;SDS011;31265;49.680;8.608;2022-10-31T06:12:55;4.70;;;2.40;;
45540;SDS011;31265;49.680;8.608;2022-10-31T06:15:33;4.47;;;2.42;;
45540;SDS011;31265;49.680;8.608;2022-10-31T06:18:02;5.47;;;2.58;;
45540;SDS011;31265;49.680;8.608;2022-10-31T06:20:45;6.93;;;2.60;;
45540;SDS011;31265;49.680;8.608;2022-10-31T06:23:15;4.45;;;2.20;;
45540;SDS011;31265;49.680;8.608;2022-10-31T06:25:49;9.50;;;3.00;;
45540;SDS011;31265;49.680;8.608;2022-10-31T06:28:18;6.07;;;2.55;;
45540;SDS011;31265;49.680;8.608;2022-10-31T06:30:59;4.13;;;2.00;;
45540;SDS011;31265;49.680;8.608;2022-10-31T06:33:30;7.88;;;2.53;;
45540;SDS011;31265;49.680;8.608;2022-10-31T06:36:01;4.28;;;1.85;;
45540;SDS011;31265;49.680;8.608;2022-10-31T06:41:03;8.60;;;2.75;;
45540;SDS011;31265;49.680;8.608;2022-10-31T06:43:41;7.50;;;2.97;;
45540;SDS011;31265;49.680;8.608;2022-10-31T06:46:46;12.55;;;3.60;;
45540;SDS011;31265;49.680;8.608;2022-10-31T06:49:43;7.38;;;3.42;;
45540;SDS011;31265;49.680;8.608;2022-10-31T06:52:15;6.93;;;2.63;;
45540;SDS011;31265;49.680;8.608;2022-10-31T06:54:44;7.87;;;3.80;;
45540;SDS011;31265;49.680;8.608;2022-10-31T06:57:16;5.07;;;2.78;;
45540;SDS011;31265;49.680;8.608;2022-10-31T06:59:45;4.45;;;2.38;;
45540;SDS011;31265;49.680;8.608;2022-10-31T07:02:20;5.88;;;3.20;;
45540;SDS011;31265;49.680;8.608;2022-10-31T07:07:17;5.28;;;3.28;;
45540;SDS011;31265;49.680;8.608;2022-10-31T07:09:49;8.32;;;3.20;;
45540;SDS011;31265;49.680;8.608;2022-10-31T07:12:30;6.88;;;3.45;;
45540;SDS011;31265;49.680;8.608;2022-10-31T07:17:26;7.80;;;3.67;;
45540;SDS011;31265;49.680;8.608;2022-10-31T07:19:58;5.32;;;2.47;;
45540;SDS011;31265;49.680;8.608;2022-10-31T07:22:31;10.52;;;2.38;;
45540;SDS011;31265;49.680;8.608;2022-10-31T07:25:00;8.93;;;3.50;;
45540;SDS011;31265;49.680;8.608;2022-10-31T07:28:06;5.05;;;2.72;;
45540;SDS011;31265;49.680;8.608;2022-10-31T07:30:36;4.60;;;2.60;;
45540;SDS011;31265;49.680;8.608;2022-10-31T07:33:05;5.55;;;2.53;;
45540;SDS011;31265;49.680;8.608;2022-10-31T07:36:00;6.40;;;2.85;;
45540;SDS011;31265;49.680;8.608;2022-10-31T07:38:31;6.63;;;3.92;;
45540;SDS011;31265;49.680;8.608;2022-10-31T07:41:03;10.82;;;4.85;;
45540;SDS011;31265;49.680;8.608;2022-10-31T07:43:38;11.98;;;4.38;;
45540;SDS011;31265;49.680;8.608;2022-10-31T07:46:17;11.43;;;2.88;;
45540;SDS011;31265;49.680;8.608;2022-10-31T07:49:04;7.05;;;3.78;;
45540;SDS011;31265;49.680;8.608;2022-10-31T07:51:52;5.40;;;2.33;;
45540;SDS011;31265;49.680;8.608;2022-10-31T07:54:50;8.20;;;2.83;;
45540;SDS011;31265;49.680;8.608;2022-10-31T07:57:22;4.65;;;2.72;;
45540;SDS011;31265;49.680;8.608;2022-10-31T07:59:54;14.32;;;3.05;;
45540;SDS011;31265;49.680;8.608;2022-10-31T08:02:22;6.18;;;3.28;;
45540;SDS011;31265;49.680;8.608;2022-10-31T08:05:19;7.40;;;2.90;;
45540;SDS011;31265;49.680;8.608;2022-10-31T08:08:07;8.82;;;2.83;;
45540;SDS011;31265;49.680;8.608;2022-10-31T08:10:36;4.25;;;2.33;;
45540;SDS011;31265;49.680;8.608;2022-10-31T08:13:07;6.22;;;2.50;;
45540;SDS011;31265;49.680;8.608;2022-10-31T08:15:42;6.50;;;2.50;;
45540;SDS011;31265;49.680;8.608;2022-10-31T08:18:11;4.88;;;2.58;;
45540;SDS011;31265;49.680;8.608;2022-10-31T08:20:42;8.55;;;3.58;;
45540;SDS011;31265;49.680;8.608;2022-10-31T08:23:12;6.40;;;2.08;;
45540;SDS011;31265;49.680;8.608;2022-10-31T08:25:42;12.02;;;3.28;;
45540;SDS011;31265;49.680;8.608;2022-10-31T08:28:11;10.68;;;2.72;;
45540;SDS011;31265;49.680;8.608;2022-10-31T08:30:43;6.38;;;2.80;;
45540;SDS011;31265;49.680;8.608;2022-10-31T08:33:31;6.30;;;2.83;;
45540;SDS011;31265;49.680;8.608;2022-10-31T08:36:11;5.50;;;3.00;;
45540;SDS011;31265;49.680;8.608;2022-10-31T08:38:50;5.78;;;2.75;;
45540;SDS011;31265;49.680;8.608;2022-10-31T08:41:27;5.70;;;2.95;;
45540;SDS011;31265;49.680;8.608;2022-10-31T08:43:57;7.07;;;2.53;;
45540;SDS011;31265;49.680;8.608;2022-10-31T08:46:27;4.18;;;2.42;;
45540;SDS011;31265;49.680;8.608;2022-10-31T08:51:23;3.47;;;2.28;;
45540;SDS011;31265;49.680;8.608;2022-10-31T08:53:55;9.70;;;2.75;;
45540;SDS011;31265;49.680;8.608;2022-10-31T08:56:53;8.32;;;2.22;;
45540;SDS011;31265;49.680;8.608;2022-10-31T08:59:43;5.57;;;2.67;;
45540;SDS011;31265;49.680;8.608;2022-10-31T09:02:22;3.72;;;1.95;;
45540;SDS011;31265;49.680;8.608;2022-10-31T09:04:58;3.72;;;2.10;;
45540;SDS011;31265;49.680;8.608;2022-10-31T09:07:27;4.55;;;2.22;;
45540;SDS011;31265;49.680;8.608;2022-10-31T09:12:30;5.60;;;2.83;;
45540;SDS011;31265;49.680;8.608;2022-10-31T09:15:14;5.15;;;2.30;;
45540;SDS011;31265;49.680;8.608;2022-10-31T09:17:48;4.60;;;2.28;;
45540;SDS011;31265;49.680;8.608;2022-10-31T09:20:30;3.33;;;1.67;;
45540;SDS011;31265;49.680;8.608;2022-10-31T09:23:01;7.22;;;3.38;;
45540;SDS011;31265;49.680;8.608;2022-10-31T09:25:34;5.80;;;2.20;;
45540;SDS011;31265;49.680;8.608;2022-10-31T09:28:23;4.95;;;2.67;;
45540;SDS011;31265;49.680;8.608;2022-10-31T09:30:54;5.93;;;2.85;;
45540;SDS011;31265;49.680;8.608;2022-10-31T09:33:57;4.93;;;3.30;;
45540;SDS011;31265;49.680;8.608;2022-10-31T09:36:48;8.38;;;2.40;;
45540;SDS011;31265;49.680;8.608;2022-10-31T09:39:19;5.35;;;2.60;;
45540;SDS011;31265;49.680;8.608;2022-10-31T09:42:02;7.63;;;2.50;;
45540;SDS011;31265;49.680;8.608;2022-10-31T09:44:39;6.40;;;3.10;;
45540;SDS011;31265;49.680;8.608;2022-10-31T09:47:27;5.97;;;2.60;;
45540;SDS011;31265;49.680;8.608;2022-10-31T09:50:26;5.15;;;2.53;;
45540;SDS011;31265;49.680;8.608;2022-10-31T09:53:08;6.63;;;2.22;;
45540;SDS011;31265;49.680;8.608;2022-10-31T09:55:47;7.40;;;2.35;;
45540;SDS011;31265;49.680;8.608;2022-10-31T09:58:20;6.40;;;2.92;;
45540;SDS011;31265;49.680;8.608;2022-10-31T10:00:56;7.03;;;3.00;;
45540;SDS011;31265;49.680;8.608;2022-10-31T10:03:30;7.25;;;3.53;;
45540;SDS011;31265;49.680;8.608;2022-10-31T10:06:22;7.47;;;2.45;;
45540;SDS011;31265;49.680;8.608;2022-10-31T10:09:11;4.57;;;2.70;;
45540;SDS011;31265;49.680;8.608;2022-10-31T10:11:58;8.35;;;3.17;;
45540;SDS011;31265;49.680;8.608;2022-10-31T10:14:40;7.00;;;2.90;;
45540;SDS011;31265;49.680;8.608;2022-10-31T10:17:22;6.05;;;2.80;;
45540;SDS011;31265;49.680;8.608;2022-10-31T10:20:03;8.45;;;3.35;;
45540;SDS011;31265;49.680;8.608;2022-10-31T10:22:50;6.00;;;2.50;;
45540;SDS011;31265;49.680;8.608;2022-10-31T10:25:28;6.40;;;2.83;;
45540;SDS011;31265;49.680;8.608;2022-10-31T10:28:04;5.28;;;2.90;;
45540;SDS011;31265;49.680;8.608;2022-10-31T10:30:39;6.30;;;2.35;;
45540;SDS011;31265;49.680;8.608;2022-10-31T10:33:10;3.83;;;2.17;;
45540;SDS011;31265;49.680;8.608;2022-10-31T10:35:42;9.32;;;3.08;;
45540;SDS011;31265;49.680;8.608;2022-10-31T10:38:19;5.50;;;2.65;;
45540;SDS011;31265;49.680;8.608;2022-10-31T10:40:52;7.55;;;3.08;;
45540;SDS011;31265;49.680;8.608;2022-10-31T10:43:22;7.18;;;3.47;;
45540;SDS011;31265;49.680;8.608;2022-10-31T10:45:56;14.60;;;3.30;;
45540;SDS011;31265;49.680;8.608;2022-10-31T10:48:54;5.03;;;2.92;;
45540;SDS011;31265;49.680;8.608;2022-10-31T10:51:30;6.78;;;3.10;;
45540;SDS011;31265;49.680;8.608;2022-10-31T10:57:32;8.45;;;3.47;;
45540;SDS011;31265;49.680;8.608;2022-10-31T11:00:14;5.65;;;3.10;;
45540;SDS011;31265;49.680;8.608;2022-10-31T11:02:46;7.13;;;3.83;;
45540;SDS011;31265;49.680;8.608;2022-10-31T11:05:18;7.95;;;2.67;;
45540;SDS011;31265;49.680;8.608;2022-10-31T11:07:52;8.38;;;3.40;;
45540;SDS011;31265;49.680;8.608;2022-10-31T11:10:22;6.80;;;3.40;;
45540;SDS011;31265;49.680;8.608;2022-10-31T11:13:03;8.05;;;3.40;;
45540;SDS011;31265;49.680;8.608;2022-10-31T11:15:35;9.80;;;4.82;;
45540;SDS011;31265;49.680;8.608;2022-10-31T11:18:12;6.35;;;3.25;;
45540;SDS011;31265;49.680;8.608;2022-10-31T11:20:50;7.63;;;2.67;;
45540;SDS011;31265;49.680;8.608;2022-10-31T11:23:22;8.80;;;3.53;;
45540;SDS011;31265;49.680;8.608;2022-10-31T11:25:55;11.35;;;3.75;;
45540;SDS011;31265;49.680;8.608;2022-10-31T11:28:26;7.50;;;3.45;;
45540;SDS011;31265;49.680;8.608;2022-10-31T11:30:57;7.75;;;3.92;;
45540;SDS011;31265;49.680;8.608;2022-10-31T11:33:29;7.93;;;3.75;;
45540;SDS011;31265;49.680;8.608;2022-10-31T11:36:02;5.28;;;2.92;;
45540;SDS011;31265;49.680;8.608;2022-10-31T11:38:43;6.97;;;3.17;;
45540;SDS011;31265;49.680;8.608;2022-10-31T11:41:15;7.50;;;3.17;;
45540;SDS011;31265;49.680;8.608;2022-10-31T11:43:46;11.30;;;3.58;;
45540;SDS011;31265;49.680;8.608;2022-10-31T11:46:19;9.00;;;3.97;;
45540;SDS011;31265;49.680;8.608;2022-10-31T11:48:51;8.75;;;3.90;;
45540;SDS011;31265;49.680;8.608;2022-10-31T11:51:22;7.80;;;3.95;;
45540;SDS011;31265;49.680;8.608;2022-10-31T11:53:53;7.38;;;3.40;;
45540;SDS011;31265;49.680;8.608;2022-10-31T11:56:39;11.98;;;3.90;;
45540;SDS011;31265;49.680;8.608;2022-10-31T11:59:15;7.82;;;4.15;;
45540;SDS011;31265;49.680;8.608;2022-10-31T12:01:49;7.28;;;3.50;;
45540;SDS011;31265;49.680;8.608;2022-10-31T12:04:21;8.65;;;5.22;;
45540;SDS011;31265;49.680;8.608;2022-10-31T12:06:54;13.80;;;4.40;;
45540;SDS011;31265;49.680;8.608;2022-10-31T12:09:23;5.90;;;3.40;;
45540;SDS011;31265;49.680;8.608;2022-10-31T12:15:21;7.95;;;4.07;;
45540;SDS011;31265;49.680;8.608;2022-10-31T12:17:58;8.77;;;3.53;;
45540;SDS011;31265;49.680;8.608;2022-10-31T12:20:49;8.20;;;4.10;;
45540;SDS011;31265;49.680;8.608;2022-10-31T12:23:36;7.53;;;3.85;;
45540;SDS011;31265;49.680;8.608;2022-10-31T12:26:16;12.18;;;3.97;;
45540;SDS011;31265;49.680;8.608;2022-10-31T12:29:03;7.90;;;3.20;;
45540;SDS011;31265;49.680;8.608;2022-10-31T12:37:32;7.50;;;3.05;;
45540;SDS011;31265;49.680;8.608;2022-10-31T12:40:18;7.38;;;3.40;;
45540;SDS011;31265;49.680;8.608;2022-10-31T12:43:04;11.50;;;3.40;;
45540;SDS011;31265;49.680;8.608;2022-10-31T12:45:49;7.20;;;3.92;;
45540;SDS011;31265;49.680;8.608;2022-10-31T12:48:27;8.60;;;3.83;;
45540;SDS011;31265;49.680;8.608;2022-10-31T12:51:14;10.95;;;4.18;;
45540;SDS011;31265;49.680;8.608;2022-10-31T12:53:52;8.73;;;3.60;;
45540;SDS011;31265;49.680;8.608;2022-10-31T12:56:37;8.90;;;3.88;;
45540;SDS011;31265;49.680;8.608;2022-10-31T12:59:17;6.65;;;3.10;;
45540;SDS011;31265;49.680;8.608;2022-10-31T13:02:03;8.52;;;3.70;;
45540;SDS011;31265;49.680;8.608;2022-10-31T13:04:40;8.93;;;3.42;;
45540;SDS011;31265;49.680;8.608;2022-10-31T13:07:13;9.02;;;3.30;;
45540;SDS011;31265;49.680;8.608;2022-10-31T13:09:49;8.15;;;3.15;;
45540;SDS011;31265;49.680;8.608;2022-10-31T13:12:24;9.68;;;3.80;;
45540;SDS011;31265;49.680;8.608;2022-10-31T13:15:03;4.82;;;3.15;;
45540;SDS011;31265;49.680;8.608;2022-10-31T13:17:35;5.72;;;3.20;;
45540;SDS011;31265;49.680;8.608;2022-10-31T13:20:13;6.88;;;3.08;;
45540;SDS011;31265;49.680;8.608;2022-10-31T13:22:54;8.50;;;3.05;;
45540;SDS011;31265;49.680;8.608;2022-10-31T13:25:27;7.13;;;3.80;;
45540;SDS011;31265;49.680;8.608;2022-10-31T13:27:59;4.82;;;2.63;;
45540;SDS011;31265;49.680;8.608;2022-10-31T13:30:31;10.45;;;3.15;;
45540;SDS011;31265;49.680;8.608;2022-10-31T13:33:05;7.32;;;3.60;;
45540;SDS011;31265;49.680;8.608;2022-10-31T13:35:39;7.05;;;3.42;;
45540;SDS011;31265;49.680;8.608;2022-10-31T13:38:17;6.85;;;3.30;;
45540;SDS011;31265;49.680;8.608;2022-10-31T13:40:51;6.63;;;3.50;;
45540;SDS011;31265;49.680;8.608;2022-10-31T13:43:26;8.15;;;3.38;;
45540;SDS011;31265;49.680;8.608;2022-10-31T13:46:00;4.68;;;2.42;;
45540;SDS011;31265;49.680;8.608;2022-10-31T13:48:36;8.73;;;3.13;;
45540;SDS011;31265;49.680;8.608;2022-10-31T13:51:08;6.90;;;3.10;;
45540;SDS011;31265;49.680;8.608;2022-10-31T13:53:41;8.77;;;2.78;;
45540;SDS011;31265;49.680;8.608;2022-10-31T13:56:16;6.50;;;2.92;;
45540;SDS011;31265;49.680;8.608;2022-10-31T13:58:57;7.20;;;3.42;;
45540;SDS011;31265;49.680;8.608;2022-10-31T14:04:03;6.70;;;3.38;;
45540;SDS011;31265;49.680;8.608;2022-10-31T14:06:43;8.35;;;3.42;;
45540;SDS011;31265;49.680;8.608;2022-10-31T14:12:03;6.63;;;2.90;;
45540;SDS011;31265;49.680;8.608;2022-10-31T14:14:40;5.28;;;2.65;;
45540;SDS011;31265;49.680;8.608;2022-10-31T14:17:16;9.73;;;3.05;;
45540;SDS011;31265;49.680;8.608;2022-10-31T14:19:58;6.50;;;2.88;;
45540;SDS011;31265;49.680;8.608;2022-10-31T14:22:30;6.60;;;3.05;;
45540;SDS011;31265;49.680;8.608;2022-10-31T14:28:17;9.48;;;2.67;;
45540;SDS011;31265;49.680;8.608;2022-10-31T14:30:51;7.07;;;2.47;;
45540;SDS011;31265;49.680;8.608;2022-10-31T14:33:20;6.80;;;2.17;;
45540;SDS011;31265;49.680;8.608;2022-10-31T14:35:53;5.90;;;2.95;;
45540;SDS011;31265;49.680;8.608;2022-10-31T14:38:33;8.13;;;3.20;;
45540;SDS011;31265;49.680;8.608;2022-10-31T14:41:31;8.20;;;3.65;;
45540;SDS011;31265;49.680;8.608;2022-10-31T14:47:22;6.60;;;2.80;;
45540;SDS011;31265;49.680;8.608;2022-10-31T14:52:38;5.20;;;2.70;;
45540;SDS011;31265;49.680;8.608;2022-10-31T14:55:10;8.27;;;2.92;;
45540;SDS011;31265;49.680;8.608;2022-10-31T14:57:44;6.55;;;2.15;;
45540;SDS011;31265;49.680;8.608;2022-10-31T15:00:19;5.57;;;2.25;;
45540;SDS011;31265;49.680;8.608;2022-10-31T15:02:59;7.50;;;2.42;;
45540;SDS011;31265;49.680;8.608;2022-10-31T15:05:34;14.27;;;3.10;;
45540;SDS011;31265;49.680;8.608;2022-10-31T15:08:12;4.57;;;2.22;;
45540;SDS011;31265;49.680;8.608;2022-10-31T15:10:44;6.75;;;2.38;;
45540;SDS011;31265;49.680;8.608;2022-10-31T15:13:17;8.40;;;2.30;;
45540;SDS011;31265;49.680;8.608;2022-10-31T15:15:48;5.78;;;2.42;;
45540;SDS011;31265;49.680;8.608;2022-10-31T15:18:19;5.45;;;2.45;;
45540;SDS011;31265;49.680;8.608;2022-10-31T15:20:51;5.78;;;2.72;;
45540;SDS011;31265;49.680;8.608;2022-10-31T15:23:22;2.83;;;1.67;;
45540;SDS011;31265;49.680;8.608;2022-10-31T15:26:00;4.43;;;2.30;;
45540;SDS011;31265;49.680;8.608;2022-10-31T15:28:31;5.10;;;2.75;;
45540;SDS011;31265;49.680;8.608;2022-10-31T15:31:01;10.95;;;2.97;;
45540;SDS011;31265;49.680;8.608;2022-10-31T15:33:31;4.78;;;2.38;;
45540;SDS011;31265;49.680;8.608;2022-10-31T15:36:18;6.07;;;2.55;;
45540;SDS011;31265;49.680;8.608;2022-10-31T15:38:55;8.68;;;3.45;;
45540;SDS011;31265;49.680;8.608;2022-10-31T15:41:27;8.65;;;2.80;;
45540;SDS011;31265;49.680;8.608;2022-10-31T15:44:03;8.02;;;2.97;;
45540;SDS011;31265;49.680;8.608;2022-10-31T15:46:38;9.30;;;4.75;;
45540;SDS011;31265;49.680;8.608;2022-10-31T15:49:10;7.75;;;4.07;;
45540;SDS011;31265;49.680;8.608;2022-10-31T15:51:51;9.75;;;3.60;;
45540;SDS011;31265;49.680;8.608;2022-10-31T15:54:20;6.80;;;3.53;;
45540;SDS011;31265;49.680;8.608;2022-10-31T15:56:49;11.63;;;3.85;;
45540;SDS011;31265;49.680;8.608;2022-10-31T15:59:20;9.25;;;3.50;;
45540;SDS011;31265;49.680;8.608;2022-10-31T16:01:58;13.35;;;3.53;;
45540;SDS011;31265;49.680;8.608;2022-10-31T16:04:29;6.38;;;3.08;;
45540;SDS011;31265;49.680;8.608;2022-10-31T16:07:00;12.15;;;3.80;;
45540;SDS011;31265;49.680;8.608;2022-10-31T16:09:31;7.38;;;3.40;;
45540;SDS011;31265;49.680;8.608;2022-10-31T16:11:59;7.10;;;2.63;;
45540;SDS011;31265;49.680;8.608;2022-10-31T16:14:29;8.40;;;3.25;;
45540;SDS011;31265;49.680;8.608;2022-10-31T16:17:03;11.93;;;4.28;;
45540;SDS011;31265;49.680;8.608;2022-10-31T16:19:32;10.75;;;3.65;;
45540;SDS011;31265;49.680;8.608;2022-10-31T16:22:03;8.80;;;3.70;;
45540;SDS011;31265;49.680;8.608;2022-10-31T16:24:36;11.27;;;5.18;;